sensor_id;sensor_type;location;lat;lon;timestamp;P1;durP1;ratioP1;P2;durP2;ratioP2
28682;SDS011;15862;43.062;25.626;2022-07-09T00:00:01;4.65;;;3.95;;
28682;SDS011;15862;43.062;25.626;2022-07-09T00:02:26;4.28;;;3.88;;
28682;SDS011;15862;43.062;25.626;2022-07-09T00:04:52;5.32;;;4.30;;
28682;SDS011;15862;43.062;25.626;2022-07-09T00:07:17;5.47;;;5.07;;
28682;SDS011;15862;43.062;25.626;2022-07-09T00:09:42;12.50;;;4.63;;
28682;SDS011;15862;43.062;25.626;2022-07-09T00:12:08;6.80;;;4.63;;
28682;SDS011;15862;43.062;25.626;2022-07-09T00:14:34;5.28;;;4.68;;
28682;SDS011;15862;43.062;25.626;2022-07-09T00:16:59;7.40;;;4.75;;
28682;SDS011;15862;43.062;25.626;2022-07-09T00:19:25;10.13;;;4.88;;
28682;SDS011;15862;43.062;25.626;2022-07-09T00:21:50;10.02;;;7.10;;
28682;SDS011;15862;43.062;25.626;2022-07-09T00:24:15;7.32;;;5.28;;
28682;SDS011;15862;43.062;25.626;2022-07-09T00:26:41;5.78;;;4.70;;
28682;SDS011;15862;43.062;25.626;2022-07-09T00:29:06;20.38;;;7.35;;
28682;SDS011;15862;43.062;25.626;2022-07-09T00:31:32;8.63;;;4.55;;
28682;SDS011;15862;43.062;25.626;2022-07-09T00:33:57;12.02;;;7.13;;
28682;SDS011;15862;43.062;25.626;2022-07-09T00:36:22;10.23;;;7.85;;
28682;SDS011;15862;43.062;25.626;2022-07-09T00:38:48;8.45;;;7.45;;
28682;SDS011;15862;43.062;25.626;2022-07-09T00:41:13;15.80;;;7.35;;
28682;SDS011;15862;43.062;25.626;2022-07-09T00:43:45;11.02;;;6.70;;
28682;SDS011;15862;43.062;25.626;2022-07-09T00:46:11;9.10;;;6.40;;
28682;SDS011;15862;43.062;25.626;2022-07-09T00:48:36;6.95;;;6.13;;
28682;SDS011;15862;43.062;25.626;2022-07-09T00:51:02;9.90;;;6.93;;
28682;SDS011;15862;43.062;25.626;2022-07-09T00:53:27;8.93;;;7.18;;
28682;SDS011;15862;43.062;25.626;2022-07-09T00:55:53;17.42;;;7.45;;
28682;SDS011;15862;43.062;25.626;2022-07-09T00:58:19;8.55;;;7.65;;
28682;SDS011;15862;43.062;25.626;2022-07-09T01:00:46;12.82;;;8.00;;
28682;SDS011;15862;43.062;25.626;2022-07-09T01:03:12;9.00;;;6.93;;
28682;SDS011;15862;43.062;25.626;2022-07-09T01:05:37;9.57;;;7.82;;
28682;SDS011;15862;43.062;25.626;2022-07-09T01:08:03;12.55;;;7.35;;
28682;SDS011;15862;43.062;25.626;2022-07-09T01:10:29;9.77;;;8.02;;
28682;SDS011;15862;43.062;25.626;2022-07-09T01:12:55;8.65;;;7.75;;
28682;SDS011;15862;43.062;25.626;2022-07-09T01:15:21;11.23;;;7.93;;
28682;SDS011;15862;43.062;25.626;2022-07-09T01:17:46;10.70;;;7.40;;
28682;SDS011;15862;43.062;25.626;2022-07-09T01:20:12;11.55;;;7.80;;
28682;SDS011;15862;43.062;25.626;2022-07-09T01:22:37;10.75;;;8.18;;
28682;SDS011;15862;43.062;25.626;2022-07-09T01:25:04;9.57;;;7.88;;
28682;SDS011;15862;43.062;25.626;2022-07-09T01:27:34;12.50;;;7.93;;
28682;SDS011;15862;43.062;25.626;2022-07-09T01:30:00;9.82;;;7.55;;
28682;SDS011;15862;43.062;25.626;2022-07-09T01:32:26;11.73;;;7.30;;
28682;SDS011;15862;43.062;25.626;2022-07-09T01:34:51;13.15;;;7.40;;
28682;SDS011;15862;43.062;25.626;2022-07-09T01:37:17;8.60;;;7.78;;
28682;SDS011;15862;43.062;25.626;2022-07-09T01:39:42;13.00;;;7.43;;
28682;SDS011;15862;43.062;25.626;2022-07-09T01:42:17;11.18;;;7.53;;
28682;SDS011;15862;43.062;25.626;2022-07-09T01:44:44;10.00;;;7.90;;
28682;SDS011;15862;43.062;25.626;2022-07-09T01:47:10;8.38;;;6.60;;
28682;SDS011;15862;43.062;25.626;2022-07-09T01:49:36;7.95;;;7.13;;
28682;SDS011;15862;43.062;25.626;2022-07-09T01:52:01;8.18;;;6.57;;
28682;SDS011;15862;43.062;25.626;2022-07-09T01:54:28;7.28;;;6.55;;
28682;SDS011;15862;43.062;25.626;2022-07-09T01:56:54;11.43;;;6.38;;
28682;SDS011;15862;43.062;25.626;2022-07-09T01:59:19;9.07;;;6.97;;
28682;SDS011;15862;43.062;25.626;2022-07-09T02:01:44;12.90;;;7.30;;
28682;SDS011;15862;43.062;25.626;2022-07-09T02:04:10;7.20;;;6.50;;
28682;SDS011;15862;43.062;25.626;2022-07-09T02:06:35;6.82;;;6.15;;
28682;SDS011;15862;43.062;25.626;2022-07-09T02:09:01;11.38;;;6.43;;
28682;SDS011;15862;43.062;25.626;2022-07-09T02:11:26;9.27;;;6.90;;
28682;SDS011;15862;43.062;25.626;2022-07-09T02:13:52;10.20;;;7.07;;
28682;SDS011;15862;43.062;25.626;2022-07-09T02:16:17;9.77;;;6.90;;
28682;SDS011;15862;43.062;25.626;2022-07-09T02:18:43;9.57;;;7.95;;
28682;SDS011;15862;43.062;25.626;2022-07-09T02:21:09;7.68;;;6.75;;
28682;SDS011;15862;43.062;25.626;2022-07-09T02:23:34;9.00;;;8.05;;
28682;SDS011;15862;43.062;25.626;2022-07-09T02:26:00;8.75;;;6.78;;
28682;SDS011;15862;43.062;25.626;2022-07-09T02:28:25;9.50;;;6.93;;
28682;SDS011;15862;43.062;25.626;2022-07-09T02:30:51;7.70;;;6.53;;
28682;SDS011;15862;43.062;25.626;2022-07-09T02:33:16;16.80;;;7.60;;
28682;SDS011;15862;43.062;25.626;2022-07-09T02:35:42;7.10;;;6.40;;
28682;SDS011;15862;43.062;25.626;2022-07-09T02:38:08;7.95;;;6.50;;
28682;SDS011;15862;43.062;25.626;2022-07-09T02:40:33;7.72;;;6.93;;
28682;SDS011;15862;43.062;25.626;2022-07-09T02:42:59;8.27;;;7.18;;
28682;SDS011;15862;43.062;25.626;2022-07-09T02:45:24;9.82;;;7.15;;
28682;SDS011;15862;43.062;25.626;2022-07-09T02:47:49;10.65;;;7.68;;
28682;SDS011;15862;43.062;25.626;2022-07-09T02:50:15;10.52;;;7.97;;
28682;SDS011;15862;43.062;25.626;2022-07-09T02:52:40;14.25;;;8.18;;
28682;SDS011;15862;43.062;25.626;2022-07-09T02:55:06;16.83;;;8.65;;
28682;SDS011;15862;43.062;25.626;2022-07-09T02:57:31;9.07;;;8.05;;
28682;SDS011;15862;43.062;25.626;2022-07-09T02:59:57;11.88;;;8.25;;
28682;SDS011;15862;43.062;25.626;2022-07-09T03:02:22;13.68;;;10.57;;
28682;SDS011;15862;43.062;25.626;2022-07-09T03:04:48;11.02;;;8.90;;
28682;SDS011;15862;43.062;25.626;2022-07-09T03:07:13;12.80;;;8.85;;
28682;SDS011;15862;43.062;25.626;2022-07-09T03:09:39;10.52;;;8.73;;
28682;SDS011;15862;43.062;25.626;2022-07-09T03:12:05;13.00;;;10.75;;
28682;SDS011;15862;43.062;25.626;2022-07-09T03:14:31;12.98;;;8.77;;
28682;SDS011;15862;43.062;25.626;2022-07-09T03:16:56;13.13;;;7.68;;
28682;SDS011;15862;43.062;25.626;2022-07-09T03:19:22;8.65;;;7.47;;
28682;SDS011;15862;43.062;25.626;2022-07-09T03:21:47;9.80;;;8.30;;
28682;SDS011;15862;43.062;25.626;2022-07-09T03:24:13;8.85;;;7.88;;
28682;SDS011;15862;43.062;25.626;2022-07-09T03:26:38;9.07;;;7.43;;
28682;SDS011;15862;43.062;25.626;2022-07-09T03:29:04;10.05;;;7.03;;
28682;SDS011;15862;43.062;25.626;2022-07-09T03:31:29;11.35;;;9.13;;
28682;SDS011;15862;43.062;25.626;2022-07-09T03:33:55;19.52;;;10.98;;
28682;SDS011;15862;43.062;25.626;2022-07-09T03:36:20;10.50;;;7.10;;
28682;SDS011;15862;43.062;25.626;2022-07-09T03:38:46;12.23;;;8.43;;
28682;SDS011;15862;43.062;25.626;2022-07-09T03:41:11;12.35;;;6.53;;
28682;SDS011;15862;43.062;25.626;2022-07-09T03:43:37;12.85;;;6.88;;
28682;SDS011;15862;43.062;25.626;2022-07-09T03:46:02;10.07;;;7.70;;
28682;SDS011;15862;43.062;25.626;2022-07-09T03:48:28;10.70;;;7.15;;
28682;SDS011;15862;43.062;25.626;2022-07-09T03:50:53;6.72;;;6.07;;
28682;SDS011;15862;43.062;25.626;2022-07-09T03:53:19;8.38;;;6.85;;
28682;SDS011;15862;43.062;25.626;2022-07-09T03:55:44;11.88;;;6.82;;
28682;SDS011;15862;43.062;25.626;2022-07-09T03:58:10;10.48;;;6.53;;
28682;SDS011;15862;43.062;25.626;2022-07-09T04:00:35;9.80;;;6.10;;
28682;SDS011;15862;43.062;25.626;2022-07-09T04:03:01;7.35;;;6.38;;
28682;SDS011;15862;43.062;25.626;2022-07-09T04:05:26;9.60;;;5.93;;
28682;SDS011;15862;43.062;25.626;2022-07-09T04:07:52;6.63;;;5.90;;
28682;SDS011;15862;43.062;25.626;2022-07-09T04:10:17;8.15;;;5.38;;
28682;SDS011;15862;43.062;25.626;2022-07-09T04:12:42;7.03;;;4.75;;
28682;SDS011;15862;43.062;25.626;2022-07-09T04:15:08;8.57;;;3.85;;
28682;SDS011;15862;43.062;25.626;2022-07-09T04:17:34;8.68;;;4.80;;
28682;SDS011;15862;43.062;25.626;2022-07-09T04:20:00;6.35;;;4.07;;
28682;SDS011;15862;43.062;25.626;2022-07-09T04:22:25;4.53;;;3.50;;
28682;SDS011;15862;43.062;25.626;2022-07-09T04:24:51;4.03;;;3.65;;
28682;SDS011;15862;43.062;25.626;2022-07-09T04:27:16;4.22;;;3.85;;
28682;SDS011;15862;43.062;25.626;2022-07-09T04:29:42;4.35;;;2.88;;
28682;SDS011;15862;43.062;25.626;2022-07-09T04:32:08;4.57;;;3.58;;
28682;SDS011;15862;43.062;25.626;2022-07-09T04:34:33;4.07;;;3.28;;
28682;SDS011;15862;43.062;25.626;2022-07-09T04:36:58;3.97;;;3.58;;
28682;SDS011;15862;43.062;25.626;2022-07-09T04:39:24;4.18;;;3.78;;
28682;SDS011;15862;43.062;25.626;2022-07-09T04:41:50;3.35;;;3.15;;
28682;SDS011;15862;43.062;25.626;2022-07-09T04:44:15;3.38;;;3.15;;
28682;SDS011;15862;43.062;25.626;2022-07-09T04:46:41;4.70;;;3.30;;
28682;SDS011;15862;43.062;25.626;2022-07-09T04:49:08;3.65;;;3.35;;
28682;SDS011;15862;43.062;25.626;2022-07-09T04:51:34;3.75;;;3.45;;
28682;SDS011;15862;43.062;25.626;2022-07-09T04:53:59;6.13;;;3.65;;
28682;SDS011;15862;43.062;25.626;2022-07-09T04:56:25;4.97;;;3.65;;
28682;SDS011;15862;43.062;25.626;2022-07-09T04:58:50;3.97;;;3.67;;
28682;SDS011;15862;43.062;25.626;2022-07-09T05:01:22;3.30;;;3.00;;
28682;SDS011;15862;43.062;25.626;2022-07-09T05:03:48;5.60;;;4.22;;
28682;SDS011;15862;43.062;25.626;2022-07-09T05:06:17;11.60;;;4.20;;
28682;SDS011;15862;43.062;25.626;2022-07-09T05:08:44;5.18;;;4.68;;
28682;SDS011;15862;43.062;25.626;2022-07-09T05:11:10;6.65;;;4.15;;
28682;SDS011;15862;43.062;25.626;2022-07-09T05:13:36;5.88;;;3.60;;
28682;SDS011;15862;43.062;25.626;2022-07-09T05:16:02;6.78;;;4.18;;
28682;SDS011;15862;43.062;25.626;2022-07-09T05:18:28;3.78;;;3.47;;
28682;SDS011;15862;43.062;25.626;2022-07-09T05:20:55;6.45;;;3.40;;
28682;SDS011;15862;43.062;25.626;2022-07-09T05:23:21;3.42;;;3.13;;
28682;SDS011;15862;43.062;25.626;2022-07-09T05:25:47;6.72;;;3.42;;
28682;SDS011;15862;43.062;25.626;2022-07-09T05:28:12;4.15;;;2.85;;
28682;SDS011;15862;43.062;25.626;2022-07-09T05:30:38;5.82;;;3.50;;
28682;SDS011;15862;43.062;25.626;2022-07-09T05:33:03;3.88;;;2.97;;
28682;SDS011;15862;43.062;25.626;2022-07-09T05:35:29;3.65;;;3.17;;
28682;SDS011;15862;43.062;25.626;2022-07-09T05:37:55;5.15;;;3.00;;
28682;SDS011;15862;43.062;25.626;2022-07-09T05:40:20;3.60;;;2.90;;
28682;SDS011;15862;43.062;25.626;2022-07-09T05:42:46;3.40;;;2.83;;
28682;SDS011;15862;43.062;25.626;2022-07-09T05:45:11;3.95;;;2.85;;
28682;SDS011;15862;43.062;25.626;2022-07-09T05:47:37;2.95;;;2.75;;
28682;SDS011;15862;43.062;25.626;2022-07-09T05:50:03;8.52;;;3.08;;
28682;SDS011;15862;43.062;25.626;2022-07-09T05:52:29;5.32;;;3.28;;
28682;SDS011;15862;43.062;25.626;2022-07-09T05:54:54;3.88;;;3.47;;
28682;SDS011;15862;43.062;25.626;2022-07-09T05:57:20;5.85;;;4.03;;
28682;SDS011;15862;43.062;25.626;2022-07-09T05:59:45;5.93;;;3.13;;
28682;SDS011;15862;43.062;25.626;2022-07-09T06:02:10;6.93;;;3.40;;
28682;SDS011;15862;43.062;25.626;2022-07-09T06:04:36;5.90;;;2.92;;
28682;SDS011;15862;43.062;25.626;2022-07-09T06:07:01;3.35;;;2.78;;
28682;SDS011;15862;43.062;25.626;2022-07-09T06:09:27;3.10;;;2.80;;
28682;SDS011;15862;43.062;25.626;2022-07-09T06:11:52;3.22;;;2.90;;
28682;SDS011;15862;43.062;25.626;2022-07-09T06:14:18;5.25;;;3.03;;
28682;SDS011;15862;43.062;25.626;2022-07-09T06:16:44;3.28;;;2.47;;
28682;SDS011;15862;43.062;25.626;2022-07-09T06:19:12;8.52;;;3.08;;
28682;SDS011;15862;43.062;25.626;2022-07-09T06:21:40;4.00;;;2.63;;
28682;SDS011;15862;43.062;25.626;2022-07-09T06:24:06;5.25;;;2.97;;
28682;SDS011;15862;43.062;25.626;2022-07-09T06:26:32;2.67;;;2.47;;
28682;SDS011;15862;43.062;25.626;2022-07-09T06:28:58;5.72;;;3.00;;
28682;SDS011;15862;43.062;25.626;2022-07-09T06:31:25;2.75;;;2.55;;
28682;SDS011;15862;43.062;25.626;2022-07-09T06:33:50;3.08;;;2.15;;
28682;SDS011;15862;43.062;25.626;2022-07-09T06:36:17;3.45;;;2.78;;
28682;SDS011;15862;43.062;25.626;2022-07-09T06:38:42;4.47;;;2.92;;
28682;SDS011;15862;43.062;25.626;2022-07-09T06:41:26;2.88;;;2.67;;
28682;SDS011;15862;43.062;25.626;2022-07-09T06:43:52;3.38;;;2.97;;
28682;SDS011;15862;43.062;25.626;2022-07-09T06:46:17;4.18;;;2.80;;
28682;SDS011;15862;43.062;25.626;2022-07-09T06:48:43;4.22;;;2.80;;
28682;SDS011;15862;43.062;25.626;2022-07-09T06:51:08;3.65;;;3.30;;
28682;SDS011;15862;43.062;25.626;2022-07-09T06:53:33;4.38;;;2.90;;
28682;SDS011;15862;43.062;25.626;2022-07-09T06:55:59;3.95;;;2.85;;
28682;SDS011;15862;43.062;25.626;2022-07-09T06:58:24;4.68;;;3.22;;
28682;SDS011;15862;43.062;25.626;2022-07-09T07:00:50;2.83;;;2.50;;
28682;SDS011;15862;43.062;25.626;2022-07-09T07:03:15;2.70;;;2.50;;
28682;SDS011;15862;43.062;25.626;2022-07-09T07:05:40;3.72;;;3.22;;
28682;SDS011;15862;43.062;25.626;2022-07-09T07:08:06;2.95;;;2.10;;
28682;SDS011;15862;43.062;25.626;2022-07-09T07:10:31;6.03;;;2.83;;
28682;SDS011;15862;43.062;25.626;2022-07-09T07:12:57;4.47;;;2.85;;
28682;SDS011;15862;43.062;25.626;2022-07-09T07:15:22;7.38;;;2.92;;
28682;SDS011;15862;43.062;25.626;2022-07-09T07:17:48;2.83;;;2.50;;
28682;SDS011;15862;43.062;25.626;2022-07-09T07:20:14;4.78;;;2.67;;
28682;SDS011;15862;43.062;25.626;2022-07-09T07:22:40;2.63;;;2.38;;
28682;SDS011;15862;43.062;25.626;2022-07-09T07:25:05;3.15;;;2.58;;
28682;SDS011;15862;43.062;25.626;2022-07-09T07:27:31;2.47;;;2.28;;
28682;SDS011;15862;43.062;25.626;2022-07-09T07:29:57;2.58;;;2.05;;
28682;SDS011;15862;43.062;25.626;2022-07-09T07:32:22;8.50;;;2.83;;
28682;SDS011;15862;43.062;25.626;2022-07-09T07:34:47;4.60;;;2.10;;
28682;SDS011;15862;43.062;25.626;2022-07-09T07:37:13;2.90;;;2.33;;
28682;SDS011;15862;43.062;25.626;2022-07-09T07:42:38;3.13;;;2.30;;
28682;SDS011;15862;43.062;25.626;2022-07-09T07:45:21;2.47;;;2.33;;
28682;SDS011;15862;43.062;25.626;2022-07-09T07:47:47;4.13;;;2.70;;
28682;SDS011;15862;43.062;25.626;2022-07-09T07:53:09;3.55;;;2.50;;
28682;SDS011;15862;43.062;25.626;2022-07-09T07:55:34;3.10;;;1.95;;
28682;SDS011;15862;43.062;25.626;2022-07-09T07:58:00;4.03;;;2.00;;
28682;SDS011;15862;43.062;25.626;2022-07-09T08:00:25;2.13;;;1.90;;
28682;SDS011;15862;43.062;25.626;2022-07-09T08:02:51;4.28;;;2.25;;
28682;SDS011;15862;43.062;25.626;2022-07-09T08:05:16;2.90;;;2.22;;
28682;SDS011;15862;43.062;25.626;2022-07-09T08:07:42;2.22;;;2.05;;
28682;SDS011;15862;43.062;25.626;2022-07-09T08:10:08;7.05;;;2.33;;
28682;SDS011;15862;43.062;25.626;2022-07-09T08:12:34;2.47;;;2.28;;
28682;SDS011;15862;43.062;25.626;2022-07-09T08:14:59;2.20;;;2.05;;
28682;SDS011;15862;43.062;25.626;2022-07-09T08:17:25;2.30;;;2.00;;
28682;SDS011;15862;43.062;25.626;2022-07-09T08:19:51;2.92;;;2.33;;
28682;SDS011;15862;43.062;25.626;2022-07-09T08:22:16;4.22;;;1.90;;
28682;SDS011;15862;43.062;25.626;2022-07-09T08:24:42;3.05;;;2.35;;
28682;SDS011;15862;43.062;25.626;2022-07-09T08:27:07;4.97;;;1.90;;
28682;SDS011;15862;43.062;25.626;2022-07-09T08:29:33;2.80;;;2.35;;
28682;SDS011;15862;43.062;25.626;2022-07-09T08:31:58;5.22;;;2.10;;
28682;SDS011;15862;43.062;25.626;2022-07-09T08:34:24;3.78;;;2.25;;
28682;SDS011;15862;43.062;25.626;2022-07-09T08:36:49;2.35;;;2.15;;
28682;SDS011;15862;43.062;25.626;2022-07-09T08:39:15;5.90;;;2.22;;
28682;SDS011;15862;43.062;25.626;2022-07-09T08:41:40;4.57;;;1.85;;
28682;SDS011;15862;43.062;25.626;2022-07-09T08:44:09;3.88;;;2.00;;
28682;SDS011;15862;43.062;25.626;2022-07-09T08:46:36;2.20;;;2.00;;
28682;SDS011;15862;43.062;25.626;2022-07-09T08:49:02;2.20;;;1.77;;
28682;SDS011;15862;43.062;25.626;2022-07-09T08:51:28;2.63;;;2.42;;
28682;SDS011;15862;43.062;25.626;2022-07-09T08:53:55;3.85;;;1.98;;
28682;SDS011;15862;43.062;25.626;2022-07-09T08:56:21;2.38;;;2.17;;
28682;SDS011;15862;43.062;25.626;2022-07-09T08:58:46;2.83;;;1.80;;
28682;SDS011;15862;43.062;25.626;2022-07-09T09:01:13;2.38;;;2.10;;
28682;SDS011;15862;43.062;25.626;2022-07-09T09:03:41;4.97;;;2.08;;
28682;SDS011;15862;43.062;25.626;2022-07-09T09:06:07;2.17;;;1.98;;
28682;SDS011;15862;43.062;25.626;2022-07-09T09:08:38;2.65;;;2.25;;
28682;SDS011;15862;43.062;25.626;2022-07-09T09:11:05;2.00;;;1.90;;
28682;SDS011;15862;43.062;25.626;2022-07-09T09:13:45;3.60;;;1.80;;
28682;SDS011;15862;43.062;25.626;2022-07-09T09:16:12;4.32;;;1.88;;
28682;SDS011;15862;43.062;25.626;2022-07-09T09:18:42;4.07;;;2.00;;
28682;SDS011;15862;43.062;25.626;2022-07-09T09:21:12;5.07;;;2.20;;
28682;SDS011;15862;43.062;25.626;2022-07-09T09:23:42;4.80;;;2.30;;
28682;SDS011;15862;43.062;25.626;2022-07-09T09:26:14;2.17;;;1.90;;
28682;SDS011;15862;43.062;25.626;2022-07-09T09:28:51;4.47;;;2.13;;
28682;SDS011;15862;43.062;25.626;2022-07-09T09:31:25;2.65;;;2.10;;
28682;SDS011;15862;43.062;25.626;2022-07-09T09:36:34;2.28;;;2.08;;
28682;SDS011;15862;43.062;25.626;2022-07-09T09:39:13;6.70;;;2.47;;
28682;SDS011;15862;43.062;25.626;2022-07-09T09:41:40;5.60;;;2.00;;
28682;SDS011;15862;43.062;25.626;2022-07-09T09:44:10;2.60;;;1.45;;
28682;SDS011;15862;43.062;25.626;2022-07-09T09:46:37;4.00;;;1.75;;
28682;SDS011;15862;43.062;25.626;2022-07-09T09:49:05;4.45;;;1.83;;
28682;SDS011;15862;43.062;25.626;2022-07-09T09:52:18;2.17;;;1.70;;
28682;SDS011;15862;43.062;25.626;2022-07-09T09:54:33;2.40;;;1.58;;
28682;SDS011;15862;43.062;25.626;2022-07-09T09:57:00;5.05;;;1.70;;
28682;SDS011;15862;43.062;25.626;2022-07-09T09:59:38;4.28;;;2.00;;
28682;SDS011;15862;43.062;25.626;2022-07-09T10:02:05;1.83;;;1.52;;
28682;SDS011;15862;43.062;25.626;2022-07-09T10:04:37;1.83;;;1.73;;
28682;SDS011;15862;43.062;25.626;2022-07-09T10:07:05;1.58;;;1.48;;
28682;SDS011;15862;43.062;25.626;2022-07-09T10:09:31;2.75;;;1.70;;
28682;SDS011;15862;43.062;25.626;2022-07-09T10:11:57;1.40;;;1.35;;
28682;SDS011;15862;43.062;25.626;2022-07-09T10:16:53;2.15;;;1.58;;
28682;SDS011;15862;43.062;25.626;2022-07-09T10:19:29;4.15;;;1.33;;
28682;SDS011;15862;43.062;25.626;2022-07-09T10:21:56;1.63;;;1.40;;
28682;SDS011;15862;43.062;25.626;2022-07-09T10:24:30;1.50;;;1.40;;
28682;SDS011;15862;43.062;25.626;2022-07-09T10:29:28;4.47;;;1.63;;
28682;SDS011;15862;43.062;25.626;2022-07-09T10:31:54;4.47;;;1.42;;
28682;SDS011;15862;43.062;25.626;2022-07-09T10:37:10;1.52;;;1.42;;
28682;SDS011;15862;43.062;25.626;2022-07-09T10:39:36;1.50;;;1.40;;
28682;SDS011;15862;43.062;25.626;2022-07-09T10:42:02;4.03;;;1.42;;
28682;SDS011;15862;43.062;25.626;2022-07-09T10:44:41;4.00;;;1.50;;
28682;SDS011;15862;43.062;25.626;2022-07-09T10:47:07;2.10;;;1.90;;
28682;SDS011;15862;43.062;25.626;2022-07-09T10:49:34;5.47;;;1.83;;
28682;SDS011;15862;43.062;25.626;2022-07-09T10:52:00;2.28;;;1.50;;
28682;SDS011;15862;43.062;25.626;2022-07-09T10:54:26;5.38;;;1.58;;
28682;SDS011;15862;43.062;25.626;2022-07-09T10:56:54;3.40;;;1.23;;
28682;SDS011;15862;43.062;25.626;2022-07-09T10:59:20;4.82;;;1.60;;
28682;SDS011;15862;43.062;25.626;2022-07-09T11:01:47;1.80;;;1.42;;
28682;SDS011;15862;43.062;25.626;2022-07-09T11:04:23;1.13;;;1.02;;
28682;SDS011;15862;43.062;25.626;2022-07-09T11:06:59;4.68;;;1.70;;
28682;SDS011;15862;43.062;25.626;2022-07-09T11:09:25;1.50;;;1.40;;
28682;SDS011;15862;43.062;25.626;2022-07-09T11:11:55;3.28;;;1.77;;
28682;SDS011;15862;43.062;25.626;2022-07-09T11:14:21;2.35;;;1.10;;
28682;SDS011;15862;43.062;25.626;2022-07-09T11:16:53;3.28;;;1.30;;
28682;SDS011;15862;43.062;25.626;2022-07-09T11:21:46;3.15;;;1.30;;
28682;SDS011;15862;43.062;25.626;2022-07-09T11:24:16;5.38;;;1.70;;
28682;SDS011;15862;43.062;25.626;2022-07-09T11:26:46;2.88;;;1.63;;
28682;SDS011;15862;43.062;25.626;2022-07-09T11:29:12;1.40;;;1.27;;
28682;SDS011;15862;43.062;25.626;2022-07-09T11:31:49;1.23;;;1.10;;
28682;SDS011;15862;43.062;25.626;2022-07-09T11:34:16;3.70;;;1.63;;
28682;SDS011;15862;43.062;25.626;2022-07-09T11:36:46;4.47;;;1.48;;
28682;SDS011;15862;43.062;25.626;2022-07-09T11:39:23;3.83;;;1.65;;
28682;SDS011;15862;43.062;25.626;2022-07-09T11:41:56;1.48;;;1.38;;
28682;SDS011;15862;43.062;25.626;2022-07-09T11:44:24;1.48;;;1.35;;
28682;SDS011;15862;43.062;25.626;2022-07-09T11:47:07;1.75;;;1.23;;
28682;SDS011;15862;43.062;25.626;2022-07-09T11:49:38;10.75;;;1.45;;
28682;SDS011;15862;43.062;25.626;2022-07-09T11:52:26;3.42;;;1.48;;
28682;SDS011;15862;43.062;25.626;2022-07-09T11:55:07;3.33;;;1.48;;
28682;SDS011;15862;43.062;25.626;2022-07-09T11:57:34;9.25;;;1.65;;
28682;SDS011;15862;43.062;25.626;2022-07-09T12:00:03;1.50;;;1.40;;
28682;SDS011;15862;43.062;25.626;2022-07-09T12:04:59;5.03;;;1.95;;
28682;SDS011;15862;43.062;25.626;2022-07-09T12:07:26;2.85;;;1.60;;
28682;SDS011;15862;43.062;25.626;2022-07-09T12:12:24;2.20;;;1.63;;
28682;SDS011;15862;43.062;25.626;2022-07-09T12:14:49;2.35;;;1.90;;
28682;SDS011;15862;43.062;25.626;2022-07-09T12:17:19;1.95;;;1.58;;
28682;SDS011;15862;43.062;25.626;2022-07-09T12:19:44;1.63;;;1.52;;
28682;SDS011;15862;43.062;25.626;2022-07-09T12:22:10;1.60;;;1.50;;
28682;SDS011;15862;43.062;25.626;2022-07-09T12:24:36;1.70;;;1.55;;
28682;SDS011;15862;43.062;25.626;2022-07-09T12:27:01;3.38;;;2.25;;
28682;SDS011;15862;43.062;25.626;2022-07-09T12:29:27;3.50;;;1.52;;
28682;SDS011;15862;43.062;25.626;2022-07-09T12:31:52;5.93;;;1.83;;
28682;SDS011;15862;43.062;25.626;2022-07-09T12:34:18;1.80;;;1.67;;
28682;SDS011;15862;43.062;25.626;2022-07-09T12:36:44;2.42;;;1.77;;
28682;SDS011;15862;43.062;25.626;2022-07-09T12:39:10;8.10;;;1.60;;
28682;SDS011;15862;43.062;25.626;2022-07-09T12:41:35;3.80;;;1.48;;
28682;SDS011;15862;43.062;25.626;2022-07-09T12:44:00;2.22;;;1.73;;
28682;SDS011;15862;43.062;25.626;2022-07-09T12:46:26;3.60;;;1.42;;
28682;SDS011;15862;43.062;25.626;2022-07-09T12:48:51;3.88;;;1.48;;
28682;SDS011;15862;43.062;25.626;2022-07-09T12:51:17;3.67;;;1.40;;
28682;SDS011;15862;43.062;25.626;2022-07-09T12:53:42;4.47;;;1.50;;
28682;SDS011;15862;43.062;25.626;2022-07-09T12:56:07;2.13;;;1.83;;
28682;SDS011;15862;43.062;25.626;2022-07-09T12:58:33;4.50;;;1.95;;
28682;SDS011;15862;43.062;25.626;2022-07-09T13:00:58;1.70;;;1.60;;
28682;SDS011;15862;43.062;25.626;2022-07-09T13:03:24;1.98;;;1.55;;
28682;SDS011;15862;43.062;25.626;2022-07-09T13:05:49;1.95;;;1.75;;
28682;SDS011;15862;43.062;25.626;2022-07-09T13:08:15;3.17;;;1.80;;
28682;SDS011;15862;43.062;25.626;2022-07-09T13:10:40;2.08;;;1.88;;
28682;SDS011;15862;43.062;25.626;2022-07-09T13:13:06;1.55;;;1.45;;
28682;SDS011;15862;43.062;25.626;2022-07-09T13:15:31;2.90;;;1.73;;
28682;SDS011;15862;43.062;25.626;2022-07-09T13:17:56;4.22;;;1.95;;
28682;SDS011;15862;43.062;25.626;2022-07-09T13:20:22;4.30;;;1.85;;
28682;SDS011;15862;43.062;25.626;2022-07-09T13:22:47;2.20;;;1.70;;
28682;SDS011;15862;43.062;25.626;2022-07-09T13:25:13;2.55;;;1.67;;
28682;SDS011;15862;43.062;25.626;2022-07-09T13:27:38;2.20;;;1.80;;
28682;SDS011;15862;43.062;25.626;2022-07-09T13:30:04;5.65;;;1.95;;
28682;SDS011;15862;43.062;25.626;2022-07-09T13:32:29;4.25;;;1.80;;
28682;SDS011;15862;43.062;25.626;2022-07-09T13:34:55;5.35;;;2.15;;
28682;SDS011;15862;43.062;25.626;2022-07-09T13:37:20;4.63;;;1.98;;
28682;SDS011;15862;43.062;25.626;2022-07-09T13:39:46;3.03;;;2.03;;
28682;SDS011;15862;43.062;25.626;2022-07-09T13:42:12;2.20;;;1.90;;
28682;SDS011;15862;43.062;25.626;2022-07-09T13:44:37;1.92;;;1.77;;
28682;SDS011;15862;43.062;25.626;2022-07-09T13:47:04;3.40;;;1.85;;
28682;SDS011;15862;43.062;25.626;2022-07-09T13:49:29;3.65;;;1.73;;
28682;SDS011;15862;43.062;25.626;2022-07-09T13:51:55;2.45;;;2.10;;
28682;SDS011;15862;43.062;25.626;2022-07-09T13:54:22;2.90;;;2.25;;
28682;SDS011;15862;43.062;25.626;2022-07-09T13:56:48;3.60;;;2.35;;
28682;SDS011;15862;43.062;25.626;2022-07-09T13:59:14;5.43;;;2.40;;
28682;SDS011;15862;43.062;25.626;2022-07-09T14:01:39;6.15;;;2.28;;
28682;SDS011;15862;43.062;25.626;2022-07-09T14:04:04;2.78;;;2.53;;
28682;SDS011;15862;43.062;25.626;2022-07-09T14:06:31;5.03;;;2.47;;
28682;SDS011;15862;43.062;25.626;2022-07-09T14:08:56;5.45;;;2.40;;
28682;SDS011;15862;43.062;25.626;2022-07-09T14:11:23;6.70;;;2.50;;
28682;SDS011;15862;43.062;25.626;2022-07-09T14:13:48;9.43;;;2.47;;
28682;SDS011;15862;43.062;25.626;2022-07-09T14:16:16;5.03;;;2.08;;
28682;SDS011;15862;43.062;25.626;2022-07-09T14:18:42;4.35;;;2.40;;
28682;SDS011;15862;43.062;25.626;2022-07-09T14:21:07;5.28;;;2.60;;
28682;SDS011;15862;43.062;25.626;2022-07-09T14:23:33;4.45;;;2.22;;
28682;SDS011;15862;43.062;25.626;2022-07-09T14:25:58;3.97;;;2.60;;
28682;SDS011;15862;43.062;25.626;2022-07-09T14:28:24;4.25;;;2.28;;
28682;SDS011;15862;43.062;25.626;2022-07-09T14:30:49;2.55;;;2.15;;
28682;SDS011;15862;43.062;25.626;2022-07-09T14:33:14;2.65;;;1.90;;
28682;SDS011;15862;43.062;25.626;2022-07-09T14:35:40;3.05;;;2.78;;
28682;SDS011;15862;43.062;25.626;2022-07-09T14:38:06;2.42;;;2.30;;
28682;SDS011;15862;43.062;25.626;2022-07-09T14:40:31;5.80;;;2.58;;
28682;SDS011;15862;43.062;25.626;2022-07-09T14:42:57;3.75;;;2.42;;
28682;SDS011;15862;43.062;25.626;2022-07-09T14:45:22;3.45;;;2.60;;
28682;SDS011;15862;43.062;25.626;2022-07-09T14:47:51;2.67;;;2.47;;
28682;SDS011;15862;43.062;25.626;2022-07-09T14:50:16;3.30;;;2.83;;
28682;SDS011;15862;43.062;25.626;2022-07-09T14:52:45;5.93;;;2.88;;